sensor_id;sensor_type;location;lat;lon;timestamp;P1;durP1;ratioP1;P2;durP2;ratioP2
23782;SDS011;12071;50.850;4.446;2023-04-16T00:00:39;11.90;;;5.55;;
23782;SDS011;12071;50.850;4.446;2023-04-16T00:03:05;11.07;;;5.22;;
23782;SDS011;12071;50.850;4.446;2023-04-16T00:05:31;7.05;;;4.22;;
23782;SDS011;12071;50.850;4.446;2023-04-16T00:07:56;10.30;;;4.00;;
23782;SDS011;12071;50.850;4.446;2023-04-16T00:10:22;9.05;;;4.28;;
23782;SDS011;12071;50.850;4.446;2023-04-16T00:12:47;17.05;;;4.53;;
23782;SDS011;12071;50.850;4.446;2023-04-16T00:15:13;8.88;;;4.20;;
23782;SDS011;12071;50.850;4.446;2023-04-16T00:17:38;13.50;;;4.35;;
23782;SDS011;12071;50.850;4.446;2023-04-16T00:20:04;11.63;;;4.10;;
23782;SDS011;12071;50.850;4.446;2023-04-16T00:22:30;12.05;;;4.80;;
23782;SDS011;12071;50.850;4.446;2023-04-16T00:24:56;15.52;;;4.95;;
23782;SDS011;12071;50.850;4.446;2023-04-16T00:27:21;12.73;;;6.55;;
23782;SDS011;12071;50.850;4.446;2023-04-16T00:29:47;11.05;;;5.90;;
23782;SDS011;12071;50.850;4.446;2023-04-16T00:32:13;9.38;;;5.47;;
23782;SDS011;12071;50.850;4.446;2023-04-16T00:34:38;11.65;;;5.82;;
23782;SDS011;12071;50.850;4.446;2023-04-16T00:37:04;11.40;;;5.45;;
23782;SDS011;12071;50.850;4.446;2023-04-16T00:39:30;11.40;;;5.43;;
23782;SDS011;12071;50.850;4.446;2023-04-16T00:41:55;9.95;;;5.47;;
23782;SDS011;12071;50.850;4.446;2023-04-16T00:44:21;11.32;;;6.18;;
23782;SDS011;12071;50.850;4.446;2023-04-16T00:46:46;14.43;;;5.72;;
23782;SDS011;12071;50.850;4.446;2023-04-16T00:49:12;8.30;;;5.25;;
23782;SDS011;12071;50.850;4.446;2023-04-16T00:51:38;13.88;;;6.03;;
23782;SDS011;12071;50.850;4.446;2023-04-16T00:54:04;7.93;;;5.32;;
23782;SDS011;12071;50.850;4.446;2023-04-16T00:56:30;9.55;;;5.68;;
23782;SDS011;12071;50.850;4.446;2023-04-16T00:58:57;12.40;;;5.68;;
23782;SDS011;12071;50.850;4.446;2023-04-16T01:01:23;7.97;;;5.70;;
23782;SDS011;12071;50.850;4.446;2023-04-16T01:03:49;12.75;;;5.03;;
23782;SDS011;12071;50.850;4.446;2023-04-16T01:06:18;15.88;;;5.05;;
23782;SDS011;12071;50.850;4.446;2023-04-16T01:08:44;9.55;;;4.47;;
23782;SDS011;12071;50.850;4.446;2023-04-16T01:11:11;10.30;;;4.45;;
23782;SDS011;12071;50.850;4.446;2023-04-16T01:13:38;8.68;;;4.43;;
23782;SDS011;12071;50.850;4.446;2023-04-16T01:16:06;7.50;;;4.22;;
23782;SDS011;12071;50.850;4.446;2023-04-16T01:18:33;10.45;;;4.25;;
23782;SDS011;12071;50.850;4.446;2023-04-16T01:20:59;9.32;;;3.75;;
23782;SDS011;12071;50.850;4.446;2023-04-16T01:23:25;8.88;;;3.63;;
23782;SDS011;12071;50.850;4.446;2023-04-16T01:25:50;7.50;;;3.50;;
23782;SDS011;12071;50.850;4.446;2023-04-16T01:28:16;12.80;;;3.92;;
23782;SDS011;12071;50.850;4.446;2023-04-16T01:30:42;6.35;;;3.05;;
23782;SDS011;12071;50.850;4.446;2023-04-16T01:33:09;5.65;;;3.28;;
23782;SDS011;12071;50.850;4.446;2023-04-16T01:35:36;9.85;;;2.88;;
23782;SDS011;12071;50.850;4.446;2023-04-16T01:38:02;7.13;;;2.67;;
23782;SDS011;12071;50.850;4.446;2023-04-16T01:40:30;6.72;;;2.25;;
23782;SDS011;12071;50.850;4.446;2023-04-16T01:42:55;5.97;;;2.30;;
23782;SDS011;12071;50.850;4.446;2023-04-16T01:45:21;6.80;;;2.05;;
23782;SDS011;12071;50.850;4.446;2023-04-16T01:47:48;8.93;;;2.10;;
23782;SDS011;12071;50.850;4.446;2023-04-16T01:50:15;4.72;;;1.88;;
23782;SDS011;12071;50.850;4.446;2023-04-16T01:52:41;3.33;;;1.98;;
23782;SDS011;12071;50.850;4.446;2023-04-16T01:55:08;5.63;;;2.20;;
23782;SDS011;12071;50.850;4.446;2023-04-16T01:57:34;7.72;;;2.90;;
23782;SDS011;12071;50.850;4.446;2023-04-16T02:00:00;7.28;;;2.25;;
23782;SDS011;12071;50.850;4.446;2023-04-16T02:02:26;9.20;;;2.42;;
23782;SDS011;12071;50.850;4.446;2023-04-16T02:04:53;9.57;;;2.50;;
23782;SDS011;12071;50.850;4.446;2023-04-16T02:07:19;6.07;;;2.13;;
23782;SDS011;12071;50.850;4.446;2023-04-16T02:09:45;6.78;;;2.47;;
23782;SDS011;12071;50.850;4.446;2023-04-16T02:12:10;6.97;;;2.58;;
23782;SDS011;12071;50.850;4.446;2023-04-16T02:14:36;6.55;;;2.20;;
23782;SDS011;12071;50.850;4.446;2023-04-16T02:17:02;3.83;;;2.28;;
23782;SDS011;12071;50.850;4.446;2023-04-16T02:19:28;4.63;;;2.30;;
23782;SDS011;12071;50.850;4.446;2023-04-16T02:21:54;5.63;;;2.53;;
23782;SDS011;12071;50.850;4.446;2023-04-16T02:24:19;4.93;;;2.33;;
23782;SDS011;12071;50.850;4.446;2023-04-16T02:26:45;8.23;;;2.97;;
23782;SDS011;12071;50.850;4.446;2023-04-16T02:29:11;7.53;;;3.25;;
23782;SDS011;12071;50.850;4.446;2023-04-16T02:31:37;6.65;;;2.90;;
23782;SDS011;12071;50.850;4.446;2023-04-16T02:34:03;7.40;;;3.08;;
23782;SDS011;12071;50.850;4.446;2023-04-16T02:36:29;8.68;;;3.42;;
23782;SDS011;12071;50.850;4.446;2023-04-16T02:38:56;4.28;;;3.10;;
23782;SDS011;12071;50.850;4.446;2023-04-16T02:41:22;4.88;;;2.97;;
23782;SDS011;12071;50.850;4.446;2023-04-16T02:43:48;3.80;;;2.88;;
23782;SDS011;12071;50.850;4.446;2023-04-16T02:46:13;6.63;;;3.00;;
23782;SDS011;12071;50.850;4.446;2023-04-16T02:48:39;8.45;;;3.10;;
23782;SDS011;12071;50.850;4.446;2023-04-16T02:51:05;11.02;;;3.47;;
23782;SDS011;12071;50.850;4.446;2023-04-16T02:53:30;8.25;;;3.30;;
23782;SDS011;12071;50.850;4.446;2023-04-16T02:55:56;7.38;;;3.17;;
23782;SDS011;12071;50.850;4.446;2023-04-16T02:58:22;9.48;;;3.40;;
23782;SDS011;12071;50.850;4.446;2023-04-16T03:00:49;8.40;;;3.40;;
23782;SDS011;12071;50.850;4.446;2023-04-16T03:03:15;7.00;;;3.30;;
23782;SDS011;12071;50.850;4.446;2023-04-16T03:05:41;11.38;;;3.53;;
23782;SDS011;12071;50.850;4.446;2023-04-16T03:08:07;6.75;;;3.70;;
23782;SDS011;12071;50.850;4.446;2023-04-16T03:10:33;11.35;;;3.38;;
23782;SDS011;12071;50.850;4.446;2023-04-16T03:13:01;9.55;;;3.65;;
23782;SDS011;12071;50.850;4.446;2023-04-16T03:15:28;7.07;;;3.58;;
23782;SDS011;12071;50.850;4.446;2023-04-16T03:17:54;7.60;;;3.30;;
23782;SDS011;12071;50.850;4.446;2023-04-16T03:20:19;8.10;;;3.40;;
23782;SDS011;12071;50.850;4.446;2023-04-16T03:22:45;6.80;;;3.63;;
23782;SDS011;12071;50.850;4.446;2023-04-16T03:25:11;7.28;;;3.28;;
23782;SDS011;12071;50.850;4.446;2023-04-16T03:27:37;8.30;;;4.03;;
23782;SDS011;12071;50.850;4.446;2023-04-16T03:30:06;5.57;;;3.50;;
23782;SDS011;12071;50.850;4.446;2023-04-16T03:32:34;10.63;;;3.50;;
23782;SDS011;12071;50.850;4.446;2023-04-16T03:35:01;6.03;;;3.50;;
23782;SDS011;12071;50.850;4.446;2023-04-16T03:37:27;3.72;;;3.20;;
23782;SDS011;12071;50.850;4.446;2023-04-16T03:39:52;8.93;;;4.07;;
23782;SDS011;12071;50.850;4.446;2023-04-16T03:42:18;12.70;;;4.53;;
23782;SDS011;12071;50.850;4.446;2023-04-16T03:44:44;8.63;;;3.75;;
23782;SDS011;12071;50.850;4.446;2023-04-16T03:47:09;7.90;;;4.18;;
23782;SDS011;12071;50.850;4.446;2023-04-16T03:49:35;10.32;;;3.58;;
23782;SDS011;12071;50.850;4.446;2023-04-16T03:52:00;7.30;;;3.33;;
23782;SDS011;12071;50.850;4.446;2023-04-16T03:54:26;7.68;;;4.28;;
23782;SDS011;12071;50.850;4.446;2023-04-16T03:56:52;10.60;;;3.83;;
23782;SDS011;12071;50.850;4.446;2023-04-16T03:59:17;9.18;;;3.42;;
23782;SDS011;12071;50.850;4.446;2023-04-16T04:01:43;6.43;;;3.20;;
23782;SDS011;12071;50.850;4.446;2023-04-16T04:04:09;9.57;;;3.45;;
23782;SDS011;12071;50.850;4.446;2023-04-16T04:06:34;8.20;;;2.80;;
23782;SDS011;12071;50.850;4.446;2023-04-16T04:09:00;9.55;;;3.17;;
23782;SDS011;12071;50.850;4.446;2023-04-16T04:11:26;8.90;;;3.03;;
23782;SDS011;12071;50.850;4.446;2023-04-16T04:13:51;9.07;;;3.17;;
23782;SDS011;12071;50.850;4.446;2023-04-16T04:16:17;8.20;;;3.53;;
23782;SDS011;12071;50.850;4.446;2023-04-16T04:18:43;11.02;;;3.20;;
23782;SDS011;12071;50.850;4.446;2023-04-16T04:21:08;11.05;;;3.30;;
23782;SDS011;12071;50.850;4.446;2023-04-16T04:23:35;5.97;;;3.60;;
23782;SDS011;12071;50.850;4.446;2023-04-16T04:26:01;12.65;;;3.95;;
23782;SDS011;12071;50.850;4.446;2023-04-16T04:28:29;9.15;;;3.78;;
23782;SDS011;12071;50.850;4.446;2023-04-16T04:30:56;10.07;;;4.47;;
23782;SDS011;12071;50.850;4.446;2023-04-16T04:33:22;10.20;;;4.38;;
23782;SDS011;12071;50.850;4.446;2023-04-16T04:35:48;8.10;;;4.75;;
23782;SDS011;12071;50.850;4.446;2023-04-16T04:38:13;10.25;;;4.93;;
23782;SDS011;12071;50.850;4.446;2023-04-16T04:40:43;9.45;;;4.85;;
23782;SDS011;12071;50.850;4.446;2023-04-16T04:43:09;9.32;;;5.15;;
23782;SDS011;12071;50.850;4.446;2023-04-16T04:45:35;11.57;;;5.60;;
23782;SDS011;12071;50.850;4.446;2023-04-16T04:48:01;9.73;;;5.70;;
23782;SDS011;12071;50.850;4.446;2023-04-16T04:50:26;9.38;;;6.30;;
23782;SDS011;12071;50.850;4.446;2023-04-16T04:52:52;9.00;;;5.88;;
23782;SDS011;12071;50.850;4.446;2023-04-16T04:55:17;9.18;;;6.30;;
23782;SDS011;12071;50.850;4.446;2023-04-16T04:57:43;16.63;;;7.20;;
23782;SDS011;12071;50.850;4.446;2023-04-16T05:00:08;9.75;;;7.43;;
23782;SDS011;12071;50.850;4.446;2023-04-16T05:02:34;13.40;;;7.38;;
23782;SDS011;12071;50.850;4.446;2023-04-16T05:05:00;8.52;;;6.50;;
23782;SDS011;12071;50.850;4.446;2023-04-16T05:07:26;10.90;;;6.90;;
23782;SDS011;12071;50.850;4.446;2023-04-16T05:09:51;10.40;;;6.88;;
23782;SDS011;12071;50.850;4.446;2023-04-16T05:12:17;12.52;;;6.25;;
23782;SDS011;12071;50.850;4.446;2023-04-16T05:14:43;11.88;;;6.07;;
23782;SDS011;12071;50.850;4.446;2023-04-16T05:17:08;13.85;;;5.53;;
23782;SDS011;12071;50.850;4.446;2023-04-16T05:19:34;10.43;;;4.53;;
23782;SDS011;12071;50.850;4.446;2023-04-16T05:22:00;10.73;;;4.53;;
23782;SDS011;12071;50.850;4.446;2023-04-16T05:24:26;11.40;;;4.50;;
23782;SDS011;12071;50.850;4.446;2023-04-16T05:26:52;8.55;;;3.80;;
23782;SDS011;12071;50.850;4.446;2023-04-16T05:29:18;6.57;;;3.58;;
23782;SDS011;12071;50.850;4.446;2023-04-16T05:31:44;9.80;;;3.30;;
23782;SDS011;12071;50.850;4.446;2023-04-16T05:34:09;8.80;;;3.30;;
23782;SDS011;12071;50.850;4.446;2023-04-16T05:36:35;11.63;;;3.08;;
23782;SDS011;12071;50.850;4.446;2023-04-16T05:39:01;9.25;;;3.40;;
23782;SDS011;12071;50.850;4.446;2023-04-16T05:41:27;7.13;;;3.25;;
23782;SDS011;12071;50.850;4.446;2023-04-16T05:43:52;7.13;;;3.17;;
23782;SDS011;12071;50.850;4.446;2023-04-16T05:46:18;6.00;;;2.80;;
23782;SDS011;12071;50.850;4.446;2023-04-16T05:48:43;10.32;;;2.90;;
23782;SDS011;12071;50.850;4.446;2023-04-16T05:51:09;8.07;;;3.00;;
23782;SDS011;12071;50.850;4.446;2023-04-16T05:53:35;7.13;;;2.97;;
23782;SDS011;12071;50.850;4.446;2023-04-16T05:56:01;8.80;;;2.92;;
23782;SDS011;12071;50.850;4.446;2023-04-16T05:58:26;6.32;;;2.55;;
23782;SDS011;12071;50.850;4.446;2023-04-16T06:00:52;9.73;;;3.03;;
23782;SDS011;12071;50.850;4.446;2023-04-16T06:03:18;8.23;;;2.72;;
23782;SDS011;12071;50.850;4.446;2023-04-16T06:05:43;10.82;;;2.53;;
23782;SDS011;12071;50.850;4.446;2023-04-16T06:08:09;9.20;;;2.75;;
23782;SDS011;12071;50.850;4.446;2023-04-16T06:10:35;12.75;;;2.72;;
23782;SDS011;12071;50.850;4.446;2023-04-16T06:13:00;10.73;;;3.00;;
23782;SDS011;12071;50.850;4.446;2023-04-16T06:15:26;9.88;;;4.00;;
23782;SDS011;12071;50.850;4.446;2023-04-16T06:17:52;21.45;;;4.38;;
23782;SDS011;12071;50.850;4.446;2023-04-16T06:20:18;8.55;;;4.53;;
23782;SDS011;12071;50.850;4.446;2023-04-16T06:22:44;10.80;;;4.40;;
23782;SDS011;12071;50.850;4.446;2023-04-16T06:25:10;10.82;;;4.60;;
23782;SDS011;12071;50.850;4.446;2023-04-16T06:27:35;11.45;;;4.80;;
23782;SDS011;12071;50.850;4.446;2023-04-16T06:30:01;12.07;;;4.90;;
23782;SDS011;12071;50.850;4.446;2023-04-16T06:32:26;10.73;;;4.80;;
23782;SDS011;12071;50.850;4.446;2023-04-16T06:34:52;9.25;;;5.55;;
23782;SDS011;12071;50.850;4.446;2023-04-16T06:37:18;14.57;;;5.82;;
23782;SDS011;12071;50.850;4.446;2023-04-16T06:39:43;12.30;;;6.30;;
23782;SDS011;12071;50.850;4.446;2023-04-16T06:42:09;10.95;;;5.47;;
23782;SDS011;12071;50.850;4.446;2023-04-16T06:44:35;12.40;;;6.00;;
23782;SDS011;12071;50.850;4.446;2023-04-16T06:47:00;12.95;;;6.00;;
23782;SDS011;12071;50.850;4.446;2023-04-16T06:49:26;11.85;;;5.72;;
23782;SDS011;12071;50.850;4.446;2023-04-16T06:51:52;11.10;;;5.80;;
23782;SDS011;12071;50.850;4.446;2023-04-16T06:54:17;11.23;;;5.70;;
23782;SDS011;12071;50.850;4.446;2023-04-16T06:56:43;17.70;;;6.68;;
23782;SDS011;12071;50.850;4.446;2023-04-16T06:59:09;9.73;;;5.53;;
23782;SDS011;12071;50.850;4.446;2023-04-16T07:01:35;10.10;;;5.65;;
23782;SDS011;12071;50.850;4.446;2023-04-16T07:04:01;11.10;;;5.90;;
23782;SDS011;12071;50.850;4.446;2023-04-16T07:06:27;13.65;;;5.75;;
23782;SDS011;12071;50.850;4.446;2023-04-16T07:08:53;12.52;;;6.35;;
23782;SDS011;12071;50.850;4.446;2023-04-16T07:11:18;8.40;;;6.15;;
23782;SDS011;12071;50.850;4.446;2023-04-16T07:13:44;17.42;;;6.80;;
23782;SDS011;12071;50.850;4.446;2023-04-16T07:16:10;12.02;;;6.28;;
23782;SDS011;12071;50.850;4.446;2023-04-16T07:18:36;15.35;;;6.72;;
23782;SDS011;12071;50.850;4.446;2023-04-16T07:21:01;12.00;;;7.00;;
23782;SDS011;12071;50.850;4.446;2023-04-16T07:23:28;17.48;;;8.27;;
23782;SDS011;12071;50.850;4.446;2023-04-16T07:25:53;22.25;;;8.15;;
23782;SDS011;12071;50.850;4.446;2023-04-16T07:28:19;17.65;;;9.23;;
23782;SDS011;12071;50.850;4.446;2023-04-16T07:30:45;16.65;;;8.57;;
23782;SDS011;12071;50.850;4.446;2023-04-16T07:33:10;17.33;;;8.90;;
23782;SDS011;12071;50.850;4.446;2023-04-16T07:35:36;23.92;;;9.90;;
23782;SDS011;12071;50.850;4.446;2023-04-16T07:38:01;17.38;;;8.63;;
23782;SDS011;12071;50.850;4.446;2023-04-16T07:40:27;21.73;;;8.93;;
23782;SDS011;12071;50.850;4.446;2023-04-16T07:42:53;22.92;;;8.68;;
23782;SDS011;12071;50.850;4.446;2023-04-16T07:45:19;19.02;;;8.80;;
23782;SDS011;12071;50.850;4.446;2023-04-16T07:47:44;20.08;;;8.70;;
23782;SDS011;12071;50.850;4.446;2023-04-16T07:50:10;19.80;;;8.63;;
23782;SDS011;12071;50.850;4.446;2023-04-16T07:52:36;21.52;;;8.63;;
23782;SDS011;12071;50.850;4.446;2023-04-16T07:55:05;18.05;;;7.05;;
23782;SDS011;12071;50.850;4.446;2023-04-16T07:57:31;18.40;;;8.05;;
23782;SDS011;12071;50.850;4.446;2023-04-16T07:59:57;17.80;;;8.18;;
23782;SDS011;12071;50.850;4.446;2023-04-16T08:02:23;26.33;;;8.23;;
23782;SDS011;12071;50.850;4.446;2023-04-16T08:04:48;17.20;;;7.40;;
23782;SDS011;12071;50.850;4.446;2023-04-16T08:07:14;18.73;;;8.70;;
23782;SDS011;12071;50.850;4.446;2023-04-16T08:09:52;21.80;;;9.05;;
23782;SDS011;12071;50.850;4.446;2023-04-16T08:12:18;18.98;;;8.60;;
23782;SDS011;12071;50.850;4.446;2023-04-16T08:14:45;21.08;;;9.00;;
23782;SDS011;12071;50.850;4.446;2023-04-16T08:17:14;14.82;;;8.65;;
23782;SDS011;12071;50.850;4.446;2023-04-16T08:19:41;19.33;;;8.90;;
23782;SDS011;12071;50.850;4.446;2023-04-16T08:22:07;18.77;;;9.30;;
23782;SDS011;12071;50.850;4.446;2023-04-16T08:24:33;20.80;;;8.55;;
23782;SDS011;12071;50.850;4.446;2023-04-16T08:26:58;20.63;;;9.07;;
23782;SDS011;12071;50.850;4.446;2023-04-16T08:29:24;16.52;;;8.85;;
23782;SDS011;12071;50.850;4.446;2023-04-16T08:31:50;23.35;;;9.23;;
23782;SDS011;12071;50.850;4.446;2023-04-16T08:34:16;22.60;;;7.80;;
23782;SDS011;12071;50.850;4.446;2023-04-16T08:36:42;18.88;;;8.05;;
23782;SDS011;12071;50.850;4.446;2023-04-16T08:39:08;14.60;;;8.15;;
23782;SDS011;12071;50.850;4.446;2023-04-16T08:41:33;17.27;;;8.93;;
23782;SDS011;12071;50.850;4.446;2023-04-16T08:44:08;15.95;;;8.18;;
23782;SDS011;12071;50.850;4.446;2023-04-16T08:46:40;16.08;;;7.85;;
23782;SDS011;12071;50.850;4.446;2023-04-16T08:49:10;24.08;;;9.70;;
23782;SDS011;12071;50.850;4.446;2023-04-16T08:51:42;20.92;;;10.27;;
23782;SDS011;12071;50.850;4.446;2023-04-16T08:54:13;24.83;;;9.32;;
23782;SDS011;12071;50.850;4.446;2023-04-16T08:56:58;21.73;;;9.52;;
23782;SDS011;12071;50.850;4.446;2023-04-16T08:59:26;17.45;;;9.57;;
23782;SDS011;12071;50.850;4.446;2023-04-16T09:01:59;32.08;;;10.55;;
23782;SDS011;12071;50.850;4.446;2023-04-16T09:04:26;18.38;;;10.77;;
23782;SDS011;12071;50.850;4.446;2023-04-16T09:06:53;20.65;;;9.82;;
23782;SDS011;12071;50.850;4.446;2023-04-16T09:09:20;24.45;;;10.23;;
23782;SDS011;12071;50.850;4.446;2023-04-16T09:11:49;25.00;;;11.18;;
23782;SDS011;12071;50.850;4.446;2023-04-16T09:14:16;24.70;;;10.52;;
23782;SDS011;12071;50.850;4.446;2023-04-16T09:16:42;25.52;;;10.57;;
23782;SDS011;12071;50.850;4.446;2023-04-16T09:19:10;22.67;;;11.05;;
23782;SDS011;12071;50.850;4.446;2023-04-16T09:21:35;24.65;;;10.38;;
23782;SDS011;12071;50.850;4.446;2023-04-16T09:24:02;24.05;;;10.77;;
23782;SDS011;12071;50.850;4.446;2023-04-16T09:26:28;22.10;;;9.52;;
23782;SDS011;12071;50.850;4.446;2023-04-16T09:28:55;21.95;;;11.35;;
23782;SDS011;12071;50.850;4.446;2023-04-16T09:31:20;20.20;;;10.18;;
23782;SDS011;12071;50.850;4.446;2023-04-16T09:34:02;28.55;;;11.15;;
23782;SDS011;12071;50.850;4.446;2023-04-16T09:36:29;24.17;;;11.55;;
23782;SDS011;12071;50.850;4.446;2023-04-16T09:38:56;21.38;;;11.05;;
23782;SDS011;12071;50.850;4.446;2023-04-16T09:41:23;29.40;;;11.68;;
23782;SDS011;12071;50.850;4.446;2023-04-16T09:46:29;24.80;;;11.38;;
23782;SDS011;12071;50.850;4.446;2023-04-16T09:48:57;21.90;;;10.90;;
23782;SDS011;12071;50.850;4.446;2023-04-16T09:51:32;24.92;;;11.35;;
23782;SDS011;12071;50.850;4.446;2023-04-16T09:54:03;26.42;;;12.05;;
23782;SDS011;12071;50.850;4.446;2023-04-16T09:56:29;19.42;;;11.30;;
23782;SDS011;12071;50.850;4.446;2023-04-16T09:58:55;24.77;;;10.75;;
23782;SDS011;12071;50.850;4.446;2023-04-16T10:01:23;24.23;;;10.10;;
23782;SDS011;12071;50.850;4.446;2023-04-16T10:03:51;21.73;;;9.65;;
23782;SDS011;12071;50.850;4.446;2023-04-16T10:06:20;17.85;;;9.70;;
23782;SDS011;12071;50.850;4.446;2023-04-16T10:11:15;15.52;;;8.77;;
23782;SDS011;12071;50.850;4.446;2023-04-16T10:13:41;21.45;;;8.85;;
23782;SDS011;12071;50.850;4.446;2023-04-16T10:16:07;18.60;;;8.63;;
23782;SDS011;12071;50.850;4.446;2023-04-16T10:18:37;23.02;;;9.27;;
23782;SDS011;12071;50.850;4.446;2023-04-16T10:21:04;19.55;;;9.18;;
23782;SDS011;12071;50.850;4.446;2023-04-16T10:23:31;18.08;;;9.35;;
23782;SDS011;12071;50.850;4.446;2023-04-16T10:25:59;14.13;;;8.55;;
23782;SDS011;12071;50.850;4.446;2023-04-16T10:28:25;22.65;;;9.50;;
23782;SDS011;12071;50.850;4.446;2023-04-16T10:30:53;20.35;;;9.40;;
23782;SDS011;12071;50.850;4.446;2023-04-16T10:33:42;20.38;;;9.73;;
23782;SDS011;12071;50.850;4.446;2023-04-16T10:36:22;19.20;;;9.98;;
23782;SDS011;12071;50.850;4.446;2023-04-16T10:38:49;16.65;;;9.52;;
23782;SDS011;12071;50.850;4.446;2023-04-16T10:41:16;23.15;;;9.48;;
23782;SDS011;12071;50.850;4.446;2023-04-16T10:43:47;20.45;;;10.13;;
23782;SDS011;12071;50.850;4.446;2023-04-16T10:48:47;19.73;;;9.95;;
23782;SDS011;12071;50.850;4.446;2023-04-16T10:51:23;17.35;;;9.35;;
23782;SDS011;12071;50.850;4.446;2023-04-16T10:54:03;21.00;;;10.50;;
23782;SDS011;12071;50.850;4.446;2023-04-16T10:56:46;19.42;;;10.30;;
23782;SDS011;12071;50.850;4.446;2023-04-16T10:59:12;25.00;;;10.35;;
23782;SDS011;12071;50.850;4.446;2023-04-16T11:01:42;22.27;;;9.57;;
23782;SDS011;12071;50.850;4.446;2023-04-16T11:06:58;13.85;;;9.68;;
23782;SDS011;12071;50.850;4.446;2023-04-16T11:15:13;19.45;;;9.63;;
23782;SDS011;12071;50.850;4.446;2023-04-16T11:17:42;25.80;;;10.65;;
23782;SDS011;12071;50.850;4.446;2023-04-16T11:22:44;21.27;;;10.82;;
23782;SDS011;12071;50.850;4.446;2023-04-16T11:25:10;20.17;;;10.32;;
23782;SDS011;12071;50.850;4.446;2023-04-16T11:27:36;23.55;;;10.95;;
23782;SDS011;12071;50.850;4.446;2023-04-16T11:30:02;23.50;;;10.40;;
23782;SDS011;12071;50.850;4.446;2023-04-16T11:32:32;19.25;;;10.57;;
23782;SDS011;12071;50.850;4.446;2023-04-16T11:35:00;20.38;;;10.38;;
23782;SDS011;12071;50.850;4.446;2023-04-16T11:37:36;18.88;;;10.07;;
23782;SDS011;12071;50.850;4.446;2023-04-16T11:40:03;23.17;;;10.40;;
23782;SDS011;12071;50.850;4.446;2023-04-16T11:42:30;19.77;;;10.45;;
23782;SDS011;12071;50.850;4.446;2023-04-16T11:44:57;24.73;;;10.75;;
23782;SDS011;12071;50.850;4.446;2023-04-16T11:47:27;18.75;;;10.32;;
23782;SDS011;12071;50.850;4.446;2023-04-16T11:49:54;21.95;;;11.40;;
23782;SDS011;12071;50.850;4.446;2023-04-16T11:52:24;22.55;;;12.02;;
23782;SDS011;12071;50.850;4.446;2023-04-16T11:54:51;23.40;;;11.17;;
23782;SDS011;12071;50.850;4.446;2023-04-16T11:57:27;22.30;;;11.27;;
23782;SDS011;12071;50.850;4.446;2023-04-16T11:59:54;23.23;;;12.35;;
23782;SDS011;12071;50.850;4.446;2023-04-16T12:08:02;22.15;;;11.65;;
23782;SDS011;12071;50.850;4.446;2023-04-16T12:10:30;26.75;;;12.25;;
23782;SDS011;12071;50.850;4.446;2023-04-16T12:13:08;28.42;;;12.57;;
23782;SDS011;12071;50.850;4.446;2023-04-16T12:15:47;21.40;;;11.90;;
23782;SDS011;12071;50.850;4.446;2023-04-16T12:18:15;23.77;;;10.65;;
23782;SDS011;12071;50.850;4.446;2023-04-16T12:20:41;23.02;;;11.05;;
23782;SDS011;12071;50.850;4.446;2023-04-16T12:23:07;24.13;;;10.57;;
23782;SDS011;12071;50.850;4.446;2023-04-16T12:25:34;16.60;;;9.88;;
23782;SDS011;12071;50.850;4.446;2023-04-16T12:28:00;24.67;;;10.70;;
23782;SDS011;12071;50.850;4.446;2023-04-16T12:30:26;22.10;;;10.55;;
23782;SDS011;12071;50.850;4.446;2023-04-16T12:33:11;25.65;;;10.82;;
23782;SDS011;12071;50.850;4.446;2023-04-16T12:35:38;24.58;;;11.15;;
23782;SDS011;12071;50.850;4.446;2023-04-16T12:38:05;19.70;;;10.93;;
23782;SDS011;12071;50.850;4.446;2023-04-16T12:40:32;20.35;;;11.15;;
23782;SDS011;12071;50.850;4.446;2023-04-16T12:42:58;26.88;;;13.13;;
23782;SDS011;12071;50.850;4.446;2023-04-16T12:45:23;22.50;;;12.70;;
23782;SDS011;12071;50.850;4.446;2023-04-16T12:47:49;21.50;;;12.70;;
23782;SDS011;12071;50.850;4.446;2023-04-16T12:50:15;24.45;;;13.57;;
23782;SDS011;12071;50.850;4.446;2023-04-16T12:52:41;24.42;;;12.23;;
23782;SDS011;12071;50.850;4.446;2023-04-16T12:55:07;19.23;;;11.45;;
23782;SDS011;12071;50.850;4.446;2023-04-16T12:57:33;26.73;;;11.80;;
23782;SDS011;12071;50.850;4.446;2023-04-16T12:59:58;24.55;;;13.07;;
23782;SDS011;12071;50.850;4.446;2023-04-16T13:02:24;20.85;;;12.32;;
23782;SDS011;12071;50.850;4.446;2023-04-16T13:04:50;25.42;;;14.23;;
23782;SDS011;12071;50.850;4.446;2023-04-16T13:07:16;24.90;;;13.82;;
23782;SDS011;12071;50.850;4.446;2023-04-16T13:09:43;22.75;;;13.25;;
23782;SDS011;12071;50.850;4.446;2023-04-16T13:12:09;21.35;;;13.23;;
23782;SDS011;12071;50.850;4.446;2023-04-16T13:14:35;23.02;;;13.68;;
23782;SDS011;12071;50.850;4.446;2023-04-16T13:17:00;21.15;;;14.25;;
23782;SDS011;12071;50.850;4.446;2023-04-16T13:19:27;24.40;;;13.23;;
23782;SDS011;12071;50.850;4.446;2023-04-16T13:21:53;26.40;;;14.13;;
23782;SDS011;12071;50.850;4.446;2023-04-16T13:24:19;26.42;;;13.57;;
23782;SDS011;12071;50.850;4.446;2023-04-16T13:26:44;28.30;;;13.02;;
23782;SDS011;12071;50.850;4.446;2023-04-16T13:29:10;23.02;;;13.23;;
23782;SDS011;12071;50.850;4.446;2023-04-16T13:31:36;21.67;;;13.07;;
23782;SDS011;12071;50.850;4.446;2023-04-16T13:34:02;24.38;;;13.68;;
23782;SDS011;12071;50.850;4.446;2023-04-16T13:36:30;22.40;;;12.60;;
23782;SDS011;12071;50.850;4.446;2023-04-16T13:38:57;25.63;;;13.73;;
23782;SDS011;12071;50.850;4.446;2023-04-16T13:41:23;30.13;;;16.10;;
23782;SDS011;12071;50.850;4.446;2023-04-16T13:43:49;25.35;;;15.43;;
23782;SDS011;12071;50.850;4.446;2023-04-16T13:46:15;26.90;;;14.45;;
23782;SDS011;12071;50.850;4.446;2023-04-16T13:48:40;25.13;;;15.30;;
23782;SDS011;12071;50.850;4.446;2023-04-16T13:51:06;29.95;;;14.10;;
23782;SDS011;12071;50.850;4.446;2023-04-16T13:53:32;27.95;;;15.02;;
23782;SDS011;12071;50.850;4.446;2023-04-16T13:55:58;28.27;;;14.85;;
23782;SDS011;12071;50.850;4.446;2023-04-16T13:58:24;25.55;;;14.50;;
23782;SDS011;12071;50.850;4.446;2023-04-16T14:00:50;26.80;;;14.38;;
23782;SDS011;12071;50.850;4.446;2023-04-16T14:03:15;23.80;;;13.65;;
23782;SDS011;12071;50.850;4.446;2023-04-16T14:05:41;24.95;;;14.02;;
23782;SDS011;12071;50.850;4.446;2023-04-16T14:08:07;24.23;;;15.90;;
23782;SDS011;12071;50.850;4.446;2023-04-16T14:10:33;22.48;;;15.85;;
23782;SDS011;12071;50.850;4.446;2023-04-16T14:12:59;32.42;;;17.85;;
23782;SDS011;12071;50.850;4.446;2023-04-16T14:15:25;24.42;;;16.73;;
23782;SDS011;12071;50.850;4.446;2023-04-16T14:17:53;27.05;;;15.90;;
23782;SDS011;12071;50.850;4.446;2023-04-16T14:20:19;28.83;;;14.85;;
23782;SDS011;12071;50.850;4.446;2023-04-16T14:22:45;21.35;;;14.95;;
23782;SDS011;12071;50.850;4.446;2023-04-16T14:25:10;24.55;;;14.75;;
23782;SDS011;12071;50.850;4.446;2023-04-16T14:27:36;24.77;;;15.30;;
23782;SDS011;12071;50.850;4.446;2023-04-16T14:30:02;25.30;;;15.77;;
23782;SDS011;12071;50.850;4.446;2023-04-16T14:32:29;25.52;;;15.27;;
23782;SDS011;12071;50.850;4.446;2023-04-16T14:34:54;25.08;;;14.25;;
23782;SDS011;12071;50.850;4.446;2023-04-16T14:37:20;26.83;;;13.57;;
23782;SDS011;12071;50.850;4.446;2023-04-16T14:39:46;23.23;;;14.40;;
23782;SDS011;12071;50.850;4.446;2023-04-16T14:42:11;27.13;;;15.40;;
23782;SDS011;12071;50.850;4.446;2023-04-16T14:44:37;25.40;;;16.40;;
23782;SDS011;12071;50.850;4.446;2023-04-16T14:47:03;27.88;;;16.73;;
23782;SDS011;12071;50.850;4.446;2023-04-16T14:49:28;24.52;;;16.83;;
23782;SDS011;12071;50.850;4.446;2023-04-16T14:51:54;23.05;;;16.55;;
23782;SDS011;12071;50.850;4.446;2023-04-16T14:54:20;25.85;;;15.52;;